createdAt,value
2023-03-29T00:00:08.380Z,23.95
2023-03-29T00:01:08.360Z,23.96
2023-03-29T00:02:08.399Z,23.96
2023-03-29T00:03:08.588Z,23.96
2023-03-29T00:04:08.417Z,23.96
2023-03-29T00:05:08.337Z,23.96
2023-03-29T00:06:08.338Z,23.96
2023-03-29T00:07:08.345Z,23.96
2023-03-29T00:08:08.324Z,23.96
2023-03-29T00:09:08.314Z,23.96
2023-03-29T00:10:08.316Z,23.95
2023-03-29T00:11:08.310Z,23.97
2023-03-29T00:12:08.305Z,23.96
2023-03-29T00:13:08.289Z,23.97
2023-03-29T00:14:08.283Z,23.96
2023-03-29T00:15:08.306Z,23.96
2023-03-29T00:16:08.285Z,23.96
2023-03-29T00:17:08.329Z,23.96
2023-03-29T00:18:08.278Z,23.96
2023-03-29T00:19:08.247Z,23.95
2023-03-29T00:20:08.259Z,23.96
2023-03-29T00:21:08.256Z,23.96
2023-03-29T00:22:08.238Z,23.96
2023-03-29T00:23:08.231Z,23.96
2023-03-29T00:24:08.216Z,23.96
2023-03-29T00:25:08.276Z,23.96
2023-03-29T00:26:08.523Z,23.96
2023-03-29T00:27:08.217Z,23.96
2023-03-29T00:28:08.211Z,23.96
2023-03-29T00:29:08.204Z,23.97
2023-03-29T00:30:08.197Z,23.95
2023-03-29T00:31:08.256Z,23.96
2023-03-29T00:32:08.187Z,23.96
2023-03-29T00:33:08.233Z,23.96
2023-03-29T00:34:08.153Z,23.97
2023-03-29T00:35:08.149Z,23.97
2023-03-29T00:36:08.180Z,23.97
2023-03-29T00:37:08.159Z,23.96
2023-03-29T00:38:08.118Z,23.96
2023-03-29T00:39:08.115Z,23.97
2023-03-29T00:40:08.112Z,23.97
2023-03-29T00:41:08.105Z,23.96
2023-03-29T00:42:08.118Z,23.97
2023-03-29T00:43:08.133Z,23.96
2023-03-29T00:44:08.099Z,23.97
2023-03-29T00:45:08.100Z,23.97
2023-03-29T00:46:08.152Z,23.96
2023-03-29T00:47:08.077Z,23.97
2023-03-29T00:48:08.138Z,23.97
2023-03-29T00:49:08.076Z,23.96
2023-03-29T00:50:08.050Z,23.96
2023-03-29T00:51:09.877Z,23.96
2023-03-29T00:52:08.023Z,23.96
2023-03-29T00:53:08.041Z,23.96
2023-03-29T00:54:08.027Z,23.97
2023-03-29T00:55:08.021Z,23.96
2023-03-29T00:56:07.998Z,23.96
2023-03-29T00:57:08.013Z,23.97
2023-03-29T00:58:07.998Z,23.96
2023-03-29T00:59:08.001Z,23.97
2023-03-29T01:00:07.993Z,23.96
2023-03-29T01:01:07.985Z,23.96
2023-03-29T01:02:08.014Z,23.96
2023-03-29T01:03:08.104Z,23.97
2023-03-29T01:04:08.012Z,23.97
2023-03-29T01:05:07.949Z,23.96
2023-03-29T01:06:07.969Z,23.97
2023-03-29T01:07:08.013Z,23.97
2023-03-29T01:08:07.939Z,23.97
2023-03-29T01:09:07.945Z,23.97
2023-03-29T01:10:07.932Z,23.96
2023-03-29T01:11:07.925Z,23.97
2023-03-29T01:12:07.926Z,23.96
2023-03-29T01:13:07.913Z,23.97
2023-03-29T01:14:07.898Z,23.97
2023-03-29T01:15:07.905Z,23.95
2023-03-29T01:16:07.939Z,23.96
2023-03-29T01:17:07.888Z,23.96
2023-03-29T01:18:07.904Z,23.96
2023-03-29T01:19:07.877Z,23.96
2023-03-29T01:20:07.858Z,23.96
2023-03-29T01:21:07.855Z,23.97
2023-03-29T01:22:07.846Z,23.96
2023-03-29T01:23:07.834Z,23.97
2023-03-29T01:24:07.849Z,23.96
2023-03-29T01:25:07.852Z,23.97
2023-03-29T01:26:07.832Z,23.97
2023-03-29T01:27:07.834Z,23.96
2023-03-29T01:28:07.834Z,23.96
2023-03-29T01:29:07.839Z,23.96
2023-03-29T01:30:07.829Z,23.96
2023-03-29T01:31:07.834Z,23.96
2023-03-29T01:32:07.926Z,23.97
2023-03-29T01:33:07.914Z,23.97
2023-03-29T01:34:07.817Z,23.97
2023-03-29T01:35:07.840Z,23.97
2023-03-29T01:36:07.896Z,23.97
2023-03-29T01:37:07.841Z,23.96
2023-03-29T01:38:07.830Z,23.96
2023-03-29T01:39:07.817Z,23.97
2023-03-29T01:40:07.833Z,23.96
2023-03-29T01:41:07.814Z,23.96
2023-03-29T01:42:07.795Z,23.97
2023-03-29T01:43:07.814Z,23.96
2023-03-29T01:44:07.793Z,23.97
2023-03-29T01:45:07.809Z,23.97
2023-03-29T01:46:07.811Z,23.97
2023-03-29T01:47:07.776Z,23.97
2023-03-29T01:48:07.774Z,23.97
2023-03-29T01:49:07.763Z,23.97
2023-03-29T01:50:07.778Z,23.97
2023-03-29T01:51:07.760Z,23.97
2023-03-29T01:52:07.760Z,23.97
2023-03-29T01:53:07.774Z,23.97
2023-03-29T01:54:07.767Z,23.97
2023-03-29T01:55:07.763Z,23.96
2023-03-29T01:56:07.756Z,23.97
2023-03-29T01:57:07.783Z,23.97
2023-03-29T01:58:07.724Z,23.97
2023-03-29T01:59:07.726Z,23.97
2023-03-29T02:00:07.721Z,23.97
2023-03-29T02:01:07.798Z,23.97
2023-03-29T02:02:07.794Z,23.98
2023-03-29T02:03:07.847Z,23.96
2023-03-29T02:04:07.710Z,23.96
2023-03-29T02:05:07.721Z,23.98
2023-03-29T02:06:07.711Z,23.97
2023-03-29T02:07:07.697Z,23.98
2023-03-29T02:08:07.702Z,23.97
2023-03-29T02:09:07.734Z,23.98
2023-03-29T02:10:07.711Z,23.97
2023-03-29T02:11:07.744Z,23.97
2023-03-29T02:12:07.719Z,23.97
2023-03-29T02:13:07.721Z,23.97
2023-03-29T02:14:07.720Z,23.97
2023-03-29T02:15:07.712Z,23.97
2023-03-29T02:16:07.734Z,23.98
2023-03-29T02:17:07.709Z,23.97
2023-03-29T02:18:07.780Z,23.98
2023-03-29T02:19:07.819Z,23.97
2023-03-29T02:20:07.708Z,23.97
2023-03-29T02:21:07.693Z,23.97
2023-03-29T02:22:07.683Z,23.97
2023-03-29T02:23:07.682Z,23.98
2023-03-29T02:24:07.692Z,23.98
2023-03-29T02:25:07.681Z,23.98
2023-03-29T02:26:07.675Z,23.98
2023-03-29T02:27:07.686Z,23.98
2023-03-29T02:28:07.648Z,23.98
2023-03-29T02:29:07.666Z,23.99
2023-03-29T02:30:07.681Z,23.98
2023-03-29T02:31:07.682Z,23.99
2023-03-29T02:32:07.657Z,23.99
2023-03-29T02:33:07.689Z,23.99
2023-03-29T02:34:07.704Z,23.99
2023-03-29T02:35:07.748Z,23.99
2023-03-29T02:36:07.787Z,23.99
2023-03-29T02:37:07.706Z,24.00
2023-03-29T02:38:07.745Z,23.99
2023-03-29T02:39:07.713Z,23.99
2023-03-29T02:40:07.712Z,23.99
2023-03-29T02:41:07.702Z,23.99
2023-03-29T02:42:07.707Z,23.99
2023-03-29T02:43:07.752Z,24.00
2023-03-29T02:44:07.740Z,23.99
2023-03-29T02:45:07.748Z,23.99
2023-03-29T02:46:07.806Z,23.99
2023-03-29T02:47:07.748Z,23.99
2023-03-29T02:48:07.828Z,23.99
2023-03-29T02:49:07.753Z,23.99
2023-03-29T02:50:07.741Z,24.00
2023-03-29T02:51:07.754Z,24.00
2023-03-29T02:52:07.851Z,24.00
2023-03-29T02:53:07.749Z,24.00
2023-03-29T02:54:07.732Z,24.00
2023-03-29T02:55:07.727Z,24.00
2023-03-29T02:56:07.722Z,24.00
2023-03-29T02:57:07.775Z,24.00
2023-03-29T02:58:07.734Z,24.00
2023-03-29T02:59:07.718Z,24.01
2023-03-29T03:00:07.722Z,24.00
2023-03-29T03:01:07.758Z,24.00
2023-03-29T03:02:07.785Z,24.00
2023-03-29T03:03:07.953Z,24.00
2023-03-29T03:04:07.769Z,24.00
2023-03-29T03:05:07.744Z,24.00
2023-03-29T03:06:07.721Z,24.00
2023-03-29T03:07:07.716Z,24.01
2023-03-29T03:08:07.756Z,24.01
2023-03-29T03:09:07.797Z,24.01
2023-03-29T03:10:07.779Z,24.01
2023-03-29T03:11:07.796Z,24.01
2023-03-29T03:12:07.840Z,24.02
2023-03-29T03:13:07.834Z,24.01
2023-03-29T03:14:07.839Z,24.01
2023-03-29T03:15:07.843Z,24.02
2023-03-29T03:16:07.939Z,24.01
2023-03-29T03:17:07.855Z,24.02
2023-03-29T03:18:07.946Z,24.01
2023-03-29T03:19:07.913Z,24.01
2023-03-29T03:20:07.934Z,24.01
2023-03-29T03:21:07.961Z,24.01
2023-03-29T03:22:08.037Z,24.02
2023-03-29T03:23:08.012Z,24.01
2023-03-29T03:24:08.019Z,24.02
2023-03-29T03:25:08.054Z,24.02
2023-03-29T03:26:08.088Z,24.02
2023-03-29T03:27:08.117Z,24.02
2023-03-29T03:28:08.145Z,24.02
2023-03-29T03:29:08.211Z,24.02
2023-03-29T03:30:08.224Z,24.03
2023-03-29T03:31:08.320Z,24.02
2023-03-29T03:32:08.420Z,24.03
2023-03-29T03:33:08.349Z,24.03
2023-03-29T03:34:08.363Z,24.03
2023-03-29T03:35:08.393Z,24.02
2023-03-29T03:36:08.468Z,24.02
2023-03-29T03:37:08.477Z,24.03
2023-03-29T03:38:08.486Z,24.03
2023-03-29T03:39:08.526Z,24.03
2023-03-29T03:40:08.542Z,24.03
2023-03-29T03:41:08.550Z,24.03
2023-03-29T03:42:08.668Z,24.02
2023-03-29T03:43:08.631Z,24.03
2023-03-29T03:44:08.660Z,24.02
2023-03-29T03:45:08.662Z,24.03
2023-03-29T03:46:08.764Z,24.02
2023-03-29T03:47:08.733Z,24.03
2023-03-29T03:48:08.801Z,24.02
2023-03-29T03:49:08.797Z,24.03
2023-03-29T03:50:08.827Z,24.02
2023-03-29T03:51:08.861Z,24.03
2023-03-29T03:52:08.866Z,24.03
2023-03-29T03:53:08.880Z,24.02
2023-03-29T03:54:08.899Z,24.03
2023-03-29T03:55:08.941Z,24.03
2023-03-29T03:56:09.164Z,24.02
2023-03-29T03:57:09.123Z,24.02
2023-03-29T03:58:09.025Z,24.02
2023-03-29T03:59:09.074Z,24.02
2023-03-29T04:00:09.098Z,24.02
2023-03-29T04:01:09.114Z,24.02
2023-03-29T04:02:09.159Z,24.03
2023-03-29T04:03:09.334Z,24.02
2023-03-29T04:04:09.234Z,24.02
2023-03-29T04:05:09.198Z,24.03
2023-03-29T04:06:09.247Z,24.03
2023-03-29T04:07:09.293Z,24.02
2023-03-29T04:08:09.329Z,24.03
2023-03-29T04:09:09.380Z,24.03
2023-03-29T04:10:09.399Z,24.03
2023-03-29T04:11:09.440Z,24.03
2023-03-29T04:12:09.493Z,24.03
2023-03-29T04:13:09.525Z,24.03
2023-03-29T04:14:09.595Z,24.03
2023-03-29T04:15:09.630Z,24.02
2023-03-29T04:16:09.728Z,24.03
2023-03-29T04:17:09.708Z,24.03
2023-03-29T04:18:09.823Z,24.03
2023-03-29T04:19:09.788Z,24.03
2023-03-29T04:20:09.823Z,24.03
2023-03-29T04:21:09.854Z,24.03
2023-03-29T04:22:09.909Z,24.03
2023-03-29T04:23:09.940Z,24.04
2023-03-29T04:24:10.017Z,24.03
2023-03-29T04:25:10.105Z,24.04
2023-03-29T04:26:10.118Z,24.03
2023-03-29T04:27:10.117Z,24.03
2023-03-29T04:28:10.176Z,24.03
2023-03-29T04:29:10.200Z,24.03
2023-03-29T04:30:10.249Z,24.02
2023-03-29T04:31:10.352Z,24.03
2023-03-29T04:32:10.297Z,24.03
2023-03-29T04:33:10.447Z,24.03
2023-03-29T04:34:10.344Z,24.03
2023-03-29T04:35:10.410Z,24.03
2023-03-29T04:36:10.470Z,24.03
2023-03-29T04:37:10.578Z,24.03
2023-03-29T04:38:10.504Z,24.03
2023-03-29T04:39:10.546Z,24.03
2023-03-29T04:40:10.580Z,24.03
2023-03-29T04:41:10.614Z,24.03
2023-03-29T04:42:10.672Z,24.03
2023-03-29T04:43:10.707Z,24.03
2023-03-29T04:44:10.725Z,24.03
2023-03-29T04:45:10.872Z,24.03
2023-03-29T04:46:10.885Z,24.04
2023-03-29T04:47:10.848Z,24.03
2023-03-29T04:48:10.937Z,24.04
2023-03-29T04:49:10.952Z,24.03
2023-03-29T04:50:11.002Z,24.04
2023-03-29T04:51:11.060Z,24.03
2023-03-29T04:52:11.095Z,24.03
2023-03-29T04:53:11.167Z,24.03
2023-03-29T04:54:11.240Z,24.03
2023-03-29T04:55:11.269Z,24.04
2023-03-29T04:56:11.314Z,24.04
2023-03-29T04:57:11.428Z,24.05
2023-03-29T04:58:11.434Z,24.05
2023-03-29T04:59:11.509Z,24.04
2023-03-29T05:00:11.547Z,24.04
2023-03-29T05:01:11.609Z,24.04
2023-03-29T05:02:11.670Z,24.05
2023-03-29T05:03:11.737Z,24.04
2023-03-29T05:04:12.853Z,24.03
2023-03-29T05:05:11.663Z,24.05
2023-03-29T05:06:11.681Z,24.05
2023-03-29T05:07:11.709Z,24.07
2023-03-29T05:08:11.746Z,24.08
2023-03-29T05:09:11.825Z,24.10
2023-03-29T05:10:11.878Z,24.11
2023-03-29T05:11:11.923Z,24.13
2023-03-29T05:12:12.011Z,24.15
2023-03-29T05:13:12.072Z,24.16
2023-03-29T05:14:12.129Z,24.18
2023-03-29T05:15:12.175Z,24.19
2023-03-29T05:16:12.262Z,24.21
2023-03-29T05:17:12.306Z,24.23
2023-03-29T05:18:12.390Z,24.24
2023-03-29T05:19:12.402Z,24.24
2023-03-29T05:20:12.477Z,24.25
2023-03-29T05:21:12.498Z,24.26
2023-03-29T05:22:12.568Z,24.26
2023-03-29T05:23:12.589Z,24.26
2023-03-29T05:24:12.654Z,24.26
2023-03-29T05:25:12.718Z,24.26
2023-03-29T05:26:12.767Z,24.27
2023-03-29T05:27:12.837Z,24.27
2023-03-29T05:28:12.855Z,24.24
2023-03-29T05:29:12.928Z,24.22
2023-03-29T05:30:13.338Z,24.19
2023-03-29T05:31:14.202Z,24.16
2023-03-29T05:32:13.066Z,24.11
2023-03-29T05:33:13.086Z,24.06
2023-03-29T05:34:13.036Z,24.00
2023-03-29T05:35:13.016Z,23.96
2023-03-29T05:36:13.037Z,23.93
2023-03-29T05:37:13.013Z,23.91
2023-03-29T05:38:12.991Z,23.88
2023-03-29T05:39:13.000Z,23.86
2023-03-29T05:40:13.343Z,23.87
2023-03-29T05:41:12.973Z,23.85
2023-03-29T05:42:12.987Z,23.89
2023-03-29T05:43:12.976Z,23.95
2023-03-29T05:44:12.969Z,24.01
2023-03-29T05:45:12.958Z,24.08
2023-03-29T05:46:12.975Z,24.15
2023-03-29T05:47:12.945Z,24.23
2023-03-29T05:48:12.944Z,24.29
2023-03-29T05:49:12.932Z,24.36
2023-03-29T05:50:12.920Z,24.43
2023-03-29T05:51:12.939Z,24.49
2023-03-29T05:52:12.905Z,24.53
2023-03-29T05:53:12.913Z,24.58
2023-03-29T05:54:12.906Z,24.62
2023-03-29T05:55:12.887Z,24.66
2023-03-29T05:56:12.901Z,24.67
2023-03-29T05:57:12.894Z,24.70
2023-03-29T05:58:12.866Z,24.72
2023-03-29T05:59:12.858Z,24.72
2023-03-29T06:00:12.853Z,24.70
2023-03-29T06:01:12.872Z,24.71
2023-03-29T06:02:12.873Z,24.71
2023-03-29T06:03:20.274Z,24.74
2023-03-29T06:04:13.926Z,24.74
2023-03-29T06:05:12.835Z,24.76
2023-03-29T06:06:12.834Z,24.75
2023-03-29T06:07:12.833Z,24.77
2023-03-29T06:08:12.810Z,24.77
2023-03-29T06:09:12.808Z,24.77
2023-03-29T06:10:12.789Z,24.78
2023-03-29T06:11:12.794Z,24.79
2023-03-29T06:12:12.803Z,24.81
2023-03-29T06:13:12.791Z,24.79
2023-03-29T06:14:12.769Z,24.81
2023-03-29T06:15:12.773Z,24.83
2023-03-29T06:16:12.760Z,24.85
2023-03-29T06:17:12.779Z,24.86
2023-03-29T06:18:12.840Z,24.88
2023-03-29T06:19:12.740Z,24.87
2023-03-29T06:20:12.753Z,24.86
2023-03-29T06:21:12.773Z,24.87
2023-03-29T06:22:14.766Z,24.88
2023-03-29T06:23:12.767Z,24.90
2023-03-29T06:24:12.771Z,24.92
2023-03-29T06:25:12.779Z,24.90
2023-03-29T06:26:12.796Z,24.93
2023-03-29T06:27:12.781Z,24.96
2023-03-29T06:28:12.781Z,24.97
2023-03-29T06:29:12.769Z,24.99
2023-03-29T06:30:12.788Z,24.99
2023-03-29T06:31:12.826Z,24.95
2023-03-29T06:32:12.869Z,24.91
2023-03-29T06:33:12.779Z,24.62
2023-03-29T06:34:12.807Z,24.04
2023-03-29T06:35:12.839Z,23.42
2023-03-29T06:36:12.885Z,23.17
2023-03-29T06:37:12.890Z,23.15
2023-03-29T06:38:12.947Z,23.21
2023-03-29T06:39:12.972Z,23.30
2023-03-29T06:40:13.003Z,23.42
2023-03-29T06:41:13.039Z,23.52
2023-03-29T06:42:21.022Z,23.65
2023-03-29T06:43:14.048Z,23.77
2023-03-29T06:44:13.026Z,23.86
2023-03-29T06:45:13.029Z,23.97
2023-03-29T06:46:13.400Z,24.07
2023-03-29T06:47:13.344Z,24.17
2023-03-29T06:48:13.128Z,24.25
2023-03-29T06:49:13.170Z,24.29
2023-03-29T06:50:13.205Z,24.29
2023-03-29T06:51:13.260Z,24.30
2023-03-29T06:52:13.348Z,24.31
2023-03-29T06:53:13.349Z,24.34
2023-03-29T06:54:13.378Z,24.38
2023-03-29T06:55:13.398Z,24.42
2023-03-29T06:56:13.443Z,24.46
2023-03-29T06:57:13.896Z,24.51
2023-03-29T06:58:13.466Z,24.56
2023-03-29T06:59:13.543Z,24.60
2023-03-29T07:00:13.513Z,24.61
2023-03-29T07:01:13.505Z,24.66
2023-03-29T07:02:13.596Z,24.69
2023-03-29T07:03:13.623Z,24.73
2023-03-29T07:04:13.565Z,24.74
2023-03-29T07:05:13.533Z,24.71
2023-03-29T07:06:13.558Z,24.55
2023-03-29T07:07:13.872Z,24.38
2023-03-29T07:08:13.906Z,24.26
2023-03-29T07:09:13.669Z,24.20
2023-03-29T07:10:13.725Z,24.16
2023-03-29T07:11:13.763Z,24.14
2023-03-29T07:12:14.048Z,24.13
2023-03-29T07:13:13.898Z,24.10
2023-03-29T07:14:13.960Z,24.08
2023-03-29T07:15:14.014Z,24.08
2023-03-29T07:16:14.137Z,24.06
2023-03-29T07:17:14.111Z,24.05
2023-03-29T07:18:14.154Z,24.04
2023-03-29T07:19:14.189Z,24.05
2023-03-29T07:20:14.234Z,24.06
2023-03-29T07:21:14.245Z,24.06
2023-03-29T07:22:14.287Z,24.04
2023-03-29T07:23:14.318Z,24.04
2023-03-29T07:24:14.365Z,24.04
2023-03-29T07:25:14.405Z,24.06
2023-03-29T07:26:14.439Z,24.09
2023-03-29T07:27:15.886Z,24.05
2023-03-29T07:28:14.957Z,24.03
2023-03-29T07:29:14.434Z,23.68
2023-03-29T07:30:14.415Z,22.95
2023-03-29T07:31:14.401Z,22.21
2023-03-29T07:32:14.433Z,21.90
2023-03-29T07:33:14.994Z,21.81
2023-03-29T07:34:14.454Z,21.82
2023-03-29T07:35:14.613Z,21.96
2023-03-29T07:36:14.548Z,22.12
2023-03-29T07:37:14.878Z,22.28
2023-03-29T07:38:14.534Z,22.46
2023-03-29T07:39:14.539Z,22.65
2023-03-29T07:40:14.537Z,22.81
2023-03-29T07:41:14.605Z,22.96
2023-03-29T07:42:14.663Z,23.11
2023-03-29T07:43:14.704Z,23.25
2023-03-29T07:44:14.715Z,23.39
2023-03-29T07:45:14.763Z,23.49
2023-03-29T07:46:14.782Z,23.59
2023-03-29T07:47:14.736Z,23.68
2023-03-29T07:48:14.796Z,23.77
2023-03-29T07:49:14.890Z,23.85
2023-03-29T07:50:14.863Z,23.94
2023-03-29T07:51:14.913Z,24.01
2023-03-29T07:52:14.978Z,24.08
2023-03-29T07:53:15.018Z,24.14
2023-03-29T07:54:15.062Z,24.21
2023-03-29T07:55:15.366Z,24.27
2023-03-29T07:56:15.128Z,24.32
2023-03-29T07:57:15.173Z,24.37
2023-03-29T07:58:15.173Z,24.41
2023-03-29T07:59:15.190Z,24.45
2023-03-29T08:00:15.443Z,24.48
2023-03-29T08:01:17.175Z,24.51
2023-03-29T08:02:15.204Z,24.53
2023-03-29T08:03:15.360Z,24.57
2023-03-29T08:04:15.235Z,24.58
2023-03-29T08:05:18.990Z,24.59
2023-03-29T08:06:16.178Z,24.61
2023-03-29T08:07:17.637Z,24.63
2023-03-29T08:08:15.156Z,24.65
2023-03-29T08:09:15.169Z,24.67
2023-03-29T08:10:15.146Z,24.68
2023-03-29T08:11:15.139Z,24.71
2023-03-29T08:12:15.163Z,24.72
2023-03-29T08:13:15.135Z,24.72
2023-03-29T08:14:15.130Z,24.72
2023-03-29T08:15:15.392Z,24.49
2023-03-29T08:16:15.183Z,24.08
2023-03-29T08:17:15.095Z,23.58
2023-03-29T08:18:15.141Z,23.28
2023-03-29T08:19:15.083Z,23.10
2023-03-29T08:20:15.408Z,23.01
2023-03-29T08:21:15.087Z,22.92
2023-03-29T08:22:15.089Z,22.42
2023-03-29T08:23:15.057Z,22.32
2023-03-29T08:24:15.083Z,22.38
2023-03-29T08:25:15.426Z,22.49
2023-03-29T08:26:15.057Z,22.64
2023-03-29T08:27:15.035Z,22.78
2023-03-29T08:28:15.406Z,22.94
2023-03-29T08:29:15.029Z,23.09
2023-03-29T08:30:15.039Z,23.25
2023-03-29T08:31:15.046Z,23.39
2023-03-29T08:32:15.012Z,23.53
2023-03-29T08:33:15.110Z,23.65
2023-03-29T08:34:15.004Z,23.78
2023-03-29T08:35:15.001Z,23.88
2023-03-29T08:36:15.061Z,23.93
2023-03-29T08:37:15.009Z,23.98
2023-03-29T08:38:15.013Z,24.01
2023-03-29T08:39:15.836Z,24.05
2023-03-29T08:40:14.953Z,24.10
2023-03-29T08:41:14.958Z,24.16
2023-03-29T08:42:14.937Z,24.21
2023-03-29T08:43:15.394Z,24.23
2023-03-29T08:44:14.929Z,24.24
2023-03-29T08:45:14.936Z,24.24
2023-03-29T08:46:15.061Z,24.24
2023-03-29T08:47:15.066Z,24.23
2023-03-29T08:48:15.115Z,24.22
2023-03-29T08:49:15.185Z,24.21
2023-03-29T08:50:15.215Z,24.20
2023-03-29T08:51:15.265Z,24.18
2023-03-29T08:52:15.327Z,24.18
2023-03-29T08:53:15.422Z,24.17
2023-03-29T08:54:15.458Z,24.17
2023-03-29T08:55:15.543Z,24.16
2023-03-29T08:56:15.592Z,24.15
2023-03-29T08:57:15.686Z,24.14
2023-03-29T08:58:15.731Z,24.14
2023-03-29T08:59:15.760Z,24.13
2023-03-29T09:00:15.834Z,24.13
2023-03-29T09:01:15.979Z,24.12
2023-03-29T09:02:15.992Z,24.12
2023-03-29T09:03:16.128Z,24.13
2023-03-29T09:04:16.061Z,24.12
2023-03-29T09:05:16.082Z,24.12
2023-03-29T09:06:16.130Z,24.11
2023-03-29T09:07:16.139Z,24.12
2023-03-29T09:08:16.173Z,24.13
2023-03-29T09:09:16.223Z,24.13
2023-03-29T09:10:16.248Z,24.14
2023-03-29T09:11:16.325Z,24.14
2023-03-29T09:12:16.336Z,24.14
2023-03-29T09:13:16.486Z,24.15
2023-03-29T09:14:16.453Z,24.16
2023-03-29T09:15:16.524Z,24.17
2023-03-29T09:16:16.620Z,24.17
2023-03-29T09:17:16.648Z,24.17
2023-03-29T09:18:17.014Z,24.18
2023-03-29T09:19:16.740Z,24.18
2023-03-29T09:20:16.845Z,24.19
2023-03-29T09:21:16.879Z,24.19
2023-03-29T09:22:17.021Z,24.20
2023-03-29T09:23:17.413Z,24.20
2023-03-29T09:24:17.085Z,24.19
2023-03-29T09:25:17.111Z,24.19
2023-03-29T09:26:17.226Z,24.20
2023-03-29T09:27:17.262Z,24.22
2023-03-29T09:28:17.410Z,24.23
2023-03-29T09:29:17.368Z,24.24
2023-03-29T09:30:17.408Z,24.26
2023-03-29T09:31:17.543Z,24.27
2023-03-29T09:32:17.516Z,24.28
2023-03-29T09:33:17.917Z,24.29
2023-03-29T09:34:17.605Z,24.31
2023-03-29T09:35:17.667Z,24.34
2023-03-29T09:36:17.708Z,24.39
2023-03-29T09:37:17.710Z,24.44
2023-03-29T09:38:17.756Z,24.50
2023-03-29T09:39:17.778Z,24.55
2023-03-29T09:40:17.847Z,24.62
2023-03-29T09:41:17.775Z,24.66
2023-03-29T09:42:17.806Z,24.71
2023-03-29T09:43:17.778Z,24.74
2023-03-29T09:44:30.301Z,24.79
2023-03-29T09:45:18.786Z,24.82
2023-03-29T09:46:17.870Z,24.86
2023-03-29T09:47:17.765Z,24.88
2023-03-29T09:48:17.933Z,24.88
2023-03-29T09:49:17.783Z,24.90
2023-03-29T09:50:30.271Z,24.92
2023-03-29T09:51:18.726Z,24.93
2023-03-29T09:52:17.730Z,24.94
2023-03-29T09:53:17.742Z,24.94
2023-03-29T09:54:17.726Z,24.92
2023-03-29T09:55:17.825Z,24.93
2023-03-29T09:56:17.706Z,24.95
2023-03-29T09:57:17.721Z,24.96
2023-03-29T09:58:17.709Z,24.98
2023-03-29T09:59:17.689Z,25.00
2023-03-29T10:00:17.682Z,25.01
2023-03-29T10:01:17.766Z,25.04
2023-03-29T10:02:17.678Z,25.04
2023-03-29T10:03:17.936Z,25.04
2023-03-29T10:04:18.023Z,25.05
2023-03-29T10:05:17.669Z,25.07
2023-03-29T10:06:17.682Z,25.09
2023-03-29T10:07:17.684Z,25.10
2023-03-29T10:08:19.462Z,25.12
2023-03-29T10:09:17.948Z,25.12
2023-03-29T10:10:17.757Z,25.13
2023-03-29T10:11:17.762Z,25.13
2023-03-29T10:12:17.809Z,25.14
2023-03-29T10:13:17.849Z,25.16
2023-03-29T10:14:17.859Z,25.17
2023-03-29T10:15:29.334Z,25.17
2023-03-29T10:16:18.942Z,25.19
2023-03-29T10:18:36.317Z,25.19
2023-03-29T10:19:36.517Z,25.21
2023-03-29T10:20:36.298Z,25.21
2023-03-29T10:21:36.296Z,25.20
2023-03-29T10:22:36.356Z,25.13
2023-03-29T10:23:36.412Z,25.08
2023-03-29T10:24:36.512Z,25.01
2023-03-29T10:25:36.490Z,24.99
2023-03-29T10:26:36.491Z,24.98
2023-03-29T10:27:36.537Z,24.98
2023-03-29T10:28:36.571Z,25.02
2023-03-29T10:29:36.621Z,25.07
2023-03-29T10:30:36.668Z,25.10
2023-03-29T10:31:36.784Z,25.16
2023-03-29T10:32:36.827Z,25.22
2023-03-29T10:33:36.827Z,25.27
2023-03-29T10:34:36.877Z,25.31
2023-03-29T10:35:36.962Z,25.36
2023-03-29T10:36:36.971Z,25.40
2023-03-29T10:37:37.011Z,25.43
2023-03-29T10:38:37.047Z,25.46
2023-03-29T10:39:37.064Z,25.48
2023-03-29T10:40:37.124Z,25.50
2023-03-29T10:41:37.147Z,25.52
2023-03-29T10:42:37.155Z,25.55
2023-03-29T10:43:37.213Z,25.55
2023-03-29T10:44:37.208Z,25.58
2023-03-29T10:45:37.221Z,25.60
2023-03-29T10:46:37.347Z,25.62
2023-03-29T10:47:37.288Z,25.64
2023-03-29T10:48:37.300Z,25.64
2023-03-29T10:49:37.331Z,25.67
2023-03-29T10:50:37.337Z,25.69
2023-03-29T10:51:37.371Z,25.70
2023-03-29T10:52:37.412Z,25.72
2023-03-29T10:53:37.419Z,25.70
2023-03-29T10:54:37.440Z,25.70
2023-03-29T10:55:37.478Z,25.70
2023-03-29T10:56:37.515Z,25.70
2023-03-29T10:57:37.764Z,25.71
2023-03-29T10:58:37.551Z,25.71
2023-03-29T10:59:38.046Z,25.73
2023-03-29T11:00:38.015Z,25.74
2023-03-29T11:01:37.762Z,25.74
2023-03-29T11:02:37.781Z,25.75
2023-03-29T11:03:37.882Z,25.75
2023-03-29T11:04:37.689Z,25.75
2023-03-29T11:05:37.719Z,25.70
2023-03-29T11:06:37.745Z,25.68
2023-03-29T11:07:37.764Z,25.66
2023-03-29T11:08:37.785Z,25.66
2023-03-29T11:09:37.799Z,25.66
2023-03-29T11:10:37.830Z,25.68
2023-03-29T11:11:37.870Z,25.69
2023-03-29T11:12:37.893Z,25.69
2023-03-29T11:13:37.916Z,25.65
2023-03-29T11:14:37.933Z,25.61
2023-03-29T11:15:38.051Z,25.59
2023-03-29T11:16:37.981Z,25.58
2023-03-29T11:17:38.070Z,25.58
2023-03-29T11:18:38.040Z,25.56
2023-03-29T11:19:38.044Z,25.52
2023-03-29T11:20:38.091Z,25.50
2023-03-29T11:21:38.130Z,25.45
2023-03-29T11:22:38.173Z,25.43
2023-03-29T11:23:38.205Z,25.40
2023-03-29T11:24:38.240Z,25.37
2023-03-29T11:25:38.277Z,25.36
2023-03-29T11:26:38.298Z,25.33
2023-03-29T11:27:38.343Z,25.32
2023-03-29T11:28:38.406Z,25.31
2023-03-29T11:29:38.456Z,25.30
2023-03-29T11:30:38.501Z,25.30
2023-03-29T11:31:39.249Z,25.29
2023-03-29T11:32:38.690Z,25.28
2023-03-29T11:33:38.679Z,25.28
2023-03-29T11:34:38.718Z,25.28
2023-03-29T11:35:38.828Z,25.26
2023-03-29T11:36:38.856Z,25.26
2023-03-29T11:37:38.876Z,25.26
2023-03-29T11:38:38.921Z,25.25
2023-03-29T11:39:38.989Z,25.25
2023-03-29T11:40:39.045Z,25.24
2023-03-29T11:41:39.103Z,25.25
2023-03-29T11:42:39.139Z,25.25
2023-03-29T11:43:39.205Z,25.25
2023-03-29T11:44:39.257Z,25.25
2023-03-29T11:45:39.323Z,25.24
2023-03-29T11:46:39.401Z,25.24
2023-03-29T11:47:39.489Z,25.24
2023-03-29T11:48:39.494Z,25.24
2023-03-29T11:49:39.583Z,25.23
2023-03-29T11:50:39.647Z,25.23
2023-03-29T11:51:39.705Z,25.23
2023-03-29T11:52:39.808Z,25.22
2023-03-29T11:53:39.812Z,25.22
2023-03-29T11:54:39.878Z,25.22
2023-03-29T11:55:40.066Z,25.21
2023-03-29T11:56:40.003Z,25.20
2023-03-29T11:57:40.064Z,25.20
2023-03-29T11:58:40.058Z,25.19
2023-03-29T11:59:40.121Z,25.19
2023-03-29T12:00:40.150Z,25.18
2023-03-29T12:01:40.236Z,25.17
2023-03-29T12:02:40.708Z,25.16
2023-03-29T12:03:40.416Z,25.16
2023-03-29T12:04:40.321Z,25.16
2023-03-29T12:05:40.357Z,25.16
2023-03-29T12:06:40.392Z,25.16
2023-03-29T12:07:40.449Z,25.15
2023-03-29T12:08:40.464Z,25.15
2023-03-29T12:09:40.493Z,25.15
2023-03-29T12:10:40.579Z,25.15
2023-03-29T12:11:40.568Z,25.15
2023-03-29T12:12:41.091Z,25.16
2023-03-29T12:13:40.620Z,25.16
2023-03-29T12:14:40.682Z,25.16
2023-03-29T12:15:40.693Z,25.16
2023-03-29T12:16:40.847Z,25.17
2023-03-29T12:17:40.811Z,25.17
2023-03-29T12:18:40.794Z,25.17
2023-03-29T12:19:43.321Z,25.17
2023-03-29T12:20:40.812Z,25.18
2023-03-29T12:21:40.821Z,25.18
2023-03-29T12:22:40.804Z,25.18
2023-03-29T12:23:40.797Z,25.19
2023-03-29T12:24:40.790Z,25.19
2023-03-29T12:25:40.782Z,25.20
2023-03-29T12:26:40.788Z,25.20
2023-03-29T12:27:40.775Z,25.19
2023-03-29T12:28:40.768Z,25.19
2023-03-29T12:29:40.772Z,25.16
2023-03-29T12:30:40.754Z,25.15
2023-03-29T12:31:40.787Z,25.14
2023-03-29T12:32:40.843Z,25.14
2023-03-29T12:33:40.760Z,25.14
2023-03-29T12:34:40.746Z,25.15
2023-03-29T12:35:40.758Z,25.17
2023-03-29T12:36:40.714Z,25.19
2023-03-29T12:37:40.716Z,25.20
2023-03-29T12:38:40.724Z,25.21
2023-03-29T12:39:40.713Z,25.24
2023-03-29T12:40:40.708Z,25.27
2023-03-29T12:41:40.700Z,25.29
2023-03-29T12:42:40.704Z,25.31
2023-03-29T12:43:40.710Z,25.34
2023-03-29T12:44:40.659Z,25.36
2023-03-29T12:45:40.697Z,25.38
2023-03-29T12:46:41.170Z,25.41
2023-03-29T12:47:40.696Z,25.43
2023-03-29T12:48:40.660Z,25.46
2023-03-29T12:49:40.642Z,25.47
2023-03-29T12:50:40.664Z,25.49
2023-03-29T12:51:40.645Z,25.50
2023-03-29T12:52:40.611Z,25.52
2023-03-29T12:53:40.656Z,25.53